createdAt,value
2022-11-04T00:01:52.814Z,97337.63
2022-11-04T00:04:44.672Z,97321.44
2022-11-04T00:07:34.182Z,97326.41
2022-11-04T00:10:01.013Z,97319.50
2022-11-04T00:12:37.947Z,97311.56
2022-11-04T00:15:23.283Z,97316.06
2022-11-04T00:17:50.155Z,97310.34
2022-11-04T00:20:35.755Z,97312.13
2022-11-04T00:23:58.978Z,97316.66
2022-11-04T00:26:44.081Z,97319.03
2022-11-04T00:29:10.892Z,97311.66
2022-11-04T00:31:56.038Z,97322.13
2022-11-04T00:34:23.023Z,97315.22
2022-11-04T00:36:49.897Z,97314.38
2022-11-04T00:39:16.665Z,97308.31
2022-11-04T00:41:43.613Z,97307.59
2022-11-04T00:44:10.615Z,97309.97
2022-11-04T00:46:37.456Z,97311.75
2022-11-04T00:49:04.386Z,97312.69
2022-11-04T00:51:31.963Z,97306.38
2022-11-04T00:53:59.032Z,97306.38
2022-11-04T00:56:26.087Z,97304.72
2022-11-04T00:58:52.884Z,97297.72
2022-11-04T01:01:20.438Z,97294.13
2022-11-04T01:03:52.329Z,97296.38
2022-11-04T01:06:20.064Z,97293.78
2022-11-04T01:08:46.946Z,97280.69
2022-11-04T01:11:14.258Z,97282.38
2022-11-04T01:13:41.732Z,97280.47
2022-11-04T01:16:09.738Z,97280.22
2022-11-04T01:18:36.831Z,97275.59
2022-11-04T01:21:16.975Z,97276.41
2022-11-04T01:23:47.421Z,97275.97
2022-11-04T01:26:19.492Z,97269.53
2022-11-04T01:28:46.847Z,97266.69
2022-11-04T01:31:15.261Z,97274.53
2022-11-04T01:33:42.170Z,97272.00
2022-11-04T01:36:34.458Z,97252.84
2022-11-04T01:39:01.294Z,97255.16
2022-11-04T01:41:29.649Z,97244.91
2022-11-04T01:43:58.298Z,97245.94
2022-11-04T01:46:31.535Z,97250.81
2022-11-04T01:49:02.052Z,97248.09
2022-11-04T01:51:31.212Z,97254.03
2022-11-04T01:53:58.322Z,97241.66
2022-11-04T01:56:26.942Z,97236.06
2022-11-04T01:58:57.498Z,97235.97
2022-11-04T02:01:24.655Z,97228.53
2022-11-04T02:03:56.590Z,97230.69
2022-11-04T02:06:23.501Z,97220.69
2022-11-04T02:08:50.536Z,97215.47
2022-11-04T02:11:35.989Z,97220.69
2022-11-04T02:14:02.940Z,97214.97
2022-11-04T02:16:32.935Z,97218.06
2022-11-04T02:19:17.196Z,97220.44
2022-11-04T02:21:57.376Z,97214.22
2022-11-04T02:24:36.609Z,97224.13
2022-11-04T02:27:29.468Z,97211.41
2022-11-04T02:30:03.692Z,97206.75
2022-11-04T02:32:30.503Z,97202.22
2022-11-04T02:34:57.405Z,97201.63
2022-11-04T02:37:38.653Z,97208.81
2022-11-04T02:40:05.477Z,97210.47
2022-11-04T02:42:35.070Z,97203.56
2022-11-04T02:45:19.968Z,97197.34
2022-11-04T02:47:51.124Z,97184.25
2022-11-04T02:50:20.976Z,97194.53
2022-11-04T02:52:54.271Z,97189.38
2022-11-04T02:55:44.457Z,97187.72
2022-11-04T02:58:16.630Z,97189.75
2022-11-04T03:00:44.278Z,97189.31
2022-11-04T03:03:16.643Z,97187.66
2022-11-04T03:05:46.467Z,97188.56
2022-11-04T03:08:20.907Z,97194.78
2022-11-04T03:10:52.728Z,97190.84
2022-11-04T03:13:23.177Z,97187.63
2022-11-04T03:15:53.436Z,97191.94
2022-11-04T03:18:38.763Z,97180.28
2022-11-04T03:21:09.347Z,97181.94
2022-11-04T03:23:36.322Z,97178.59
2022-11-04T03:26:09.576Z,97190.16
2022-11-04T03:28:36.537Z,97180.50
2022-11-04T03:31:04.943Z,97181.22
2022-11-04T03:33:49.150Z,97182.41
2022-11-04T03:36:16.411Z,97181.47
2022-11-04T03:38:43.446Z,97177.78
2022-11-04T03:41:27.757Z,97183.59
2022-11-04T03:43:54.657Z,97176.72
2022-11-04T03:46:22.875Z,97173.84
2022-11-04T03:48:51.818Z,97179.19
2022-11-04T03:51:18.648Z,97171.72
2022-11-04T03:53:45.514Z,97177.78
2022-11-04T03:56:44.853Z,97180.50
2022-11-04T03:59:14.442Z,97175.88
2022-11-04T04:01:51.058Z,97174.69
2022-11-04T04:04:17.889Z,97177.53
2022-11-04T04:06:46.461Z,97170.97
2022-11-04T04:09:21.509Z,97173.38
2022-11-04T04:11:48.380Z,97181.22
2022-11-04T04:14:41.860Z,97177.53
2022-11-04T04:17:15.056Z,97175.28
2022-11-04T04:19:48.276Z,97181.56
2022-11-04T04:22:18.828Z,97178.34
2022-11-04T04:25:06.350Z,97179.53
2022-11-04T04:27:34.456Z,97174.41
2022-11-04T04:30:12.546Z,97183.22
2022-11-04T04:32:45.122Z,97181.66
2022-11-04T04:35:31.357Z,97177.97
2022-11-04T04:38:20.393Z,97179.75
2022-11-04T04:41:29.034Z,97181.66
2022-11-04T04:44:14.788Z,97178.94
2022-11-04T04:46:43.703Z,97174.75
2022-11-04T04:49:10.876Z,97171.44
2022-11-04T04:51:43.341Z,97167.13
2022-11-04T04:54:10.716Z,97178.34
2022-11-04T04:56:37.810Z,97173.09
2022-11-04T04:59:04.710Z,97173.09
2022-11-04T05:01:34.731Z,97171.66
2022-11-04T05:04:01.737Z,97166.66
2022-11-04T05:06:28.536Z,97169.28
2022-11-04T05:09:00.436Z,97174.50
2022-11-04T05:11:27.509Z,97174.97
2022-11-04T05:14:02.436Z,97171.66
2022-11-04T05:16:29.568Z,97174.50
2022-11-04T05:18:56.638Z,97186.38
2022-11-04T05:21:23.702Z,97195.78
2022-11-04T05:23:50.675Z,97181.16
2022-11-04T05:26:17.966Z,97182.59
2022-11-04T05:28:45.152Z,97189.25
2022-11-04T05:31:12.054Z,97181.91
2022-11-04T05:33:39.108Z,97192.09
2022-11-04T05:36:09.533Z,97190.97
2022-11-04T05:38:36.942Z,97184.63
2022-11-04T05:41:04.721Z,97182.38
2022-11-04T05:43:31.699Z,97190.38
2022-11-04T05:46:01.798Z,97189.88
2022-11-04T05:48:28.673Z,97192.78
2022-11-04T05:50:55.908Z,97195.47
2022-11-04T05:53:22.814Z,97193.38
2022-11-04T05:55:50.025Z,97190.84
2022-11-04T05:58:16.769Z,97192.88
2022-11-04T06:00:43.490Z,97194.91
2022-11-04T06:03:13.558Z,97198.84
2022-11-04T06:05:43.031Z,97196.00
2022-11-04T06:08:10.177Z,97183.97
2022-11-04T06:10:37.250Z,97192.16
2022-11-04T06:13:04.357Z,97195.00
2022-11-04T06:15:31.106Z,97198.56
2022-11-04T06:17:57.911Z,97199.63
2022-11-04T06:20:25.101Z,97208.56
2022-11-04T06:22:51.849Z,97207.94
2022-11-04T06:25:18.652Z,97204.47
2022-11-04T06:27:45.467Z,97212.16
2022-11-04T06:30:13.096Z,97212.03
2022-11-04T06:32:39.852Z,97203.88
2022-11-04T06:35:09.186Z,97204.03
2022-11-04T06:37:36.303Z,97208.97
2022-11-04T06:40:03.118Z,97208.84
2022-11-04T06:42:29.877Z,97211.56
2022-11-04T06:44:56.651Z,97204.09
2022-11-04T06:47:24.994Z,97212.88
2022-11-04T06:49:52.016Z,97200.50
2022-11-04T06:52:18.840Z,97198.31
2022-11-04T06:57:27.229Z,97196.16
2022-11-04T06:59:54.194Z,97196.13
2022-11-04T07:02:21.339Z,97191.78
2022-11-04T07:04:48.345Z,97189.59
2022-11-04T07:07:15.162Z,97188.16
2022-11-04T07:09:42.108Z,97182.59
2022-11-04T07:12:09.102Z,97181.84
2022-11-04T07:14:36.047Z,97181.75
2022-11-04T07:17:02.822Z,97167.13
2022-11-04T07:19:29.723Z,97165.38
2022-11-04T07:21:56.789Z,97161.91
2022-11-04T07:24:23.767Z,97160.50
2022-11-04T07:26:50.641Z,97153.47
2022-11-04T07:29:17.590Z,97156.47
2022-11-04T07:31:44.498Z,97150.78
2022-11-04T07:34:11.243Z,97142.78
2022-11-04T07:36:38.602Z,97135.88
2022-11-04T07:39:06.968Z,97134.53
2022-11-04T07:41:34.270Z,97134.31
2022-11-04T07:44:02.922Z,97131.41
2022-11-04T07:46:29.714Z,97120.59
2022-11-04T07:48:58.167Z,97109.25
2022-11-04T07:51:26.033Z,97115.09
2022-11-04T07:53:53.361Z,97110.03
2022-11-04T07:56:20.253Z,97094.31
2022-11-04T07:58:47.166Z,97100.88
2022-11-04T08:01:16.376Z,97095.78
2022-11-04T08:03:43.386Z,97094.47
2022-11-04T08:06:12.166Z,97090.47
2022-11-04T08:08:39.112Z,97083.59
2022-11-04T08:11:10.388Z,97088.00
2022-11-04T08:13:39.818Z,97086.28
2022-11-04T08:16:09.772Z,97078.88
2022-11-04T08:18:36.608Z,97077.72
2022-11-04T08:21:04.625Z,97067.69
2022-11-04T08:23:32.353Z,97066.75
2022-11-04T08:25:59.184Z,97064.84
2022-11-04T08:28:26.508Z,97059.91
2022-11-04T08:30:54.508Z,97061.63
2022-11-04T08:33:21.543Z,97056.28
2022-11-04T08:35:48.596Z,97060.44
2022-11-04T08:38:16.286Z,97057.19
2022-11-04T08:40:43.470Z,97045.78
2022-11-04T08:43:10.652Z,97050.31
2022-11-04T08:45:42.297Z,97043.34
2022-11-04T08:48:09.488Z,97044.59
2022-11-04T08:50:36.566Z,97049.34
2022-11-04T08:53:04.393Z,97037.84
2022-11-04T08:55:31.660Z,97040.50
2022-11-04T08:57:59.675Z,97037.25
2022-11-04T09:00:27.180Z,97027.38
2022-11-04T09:02:55.791Z,97024.72
2022-11-04T09:05:23.081Z,97021.22
2022-11-04T09:07:50.118Z,97025.75
2022-11-04T09:10:17.608Z,97010.94
2022-11-04T09:12:45.500Z,97014.66
2022-11-04T09:15:13.676Z,97017.09
2022-11-04T09:17:40.765Z,97021.00
2022-11-04T09:20:07.766Z,97020.41
2022-11-04T09:22:34.561Z,96998.19
2022-11-04T09:25:01.440Z,97008.06
2022-11-04T09:27:28.384Z,97001.91
2022-11-04T09:29:55.155Z,96991.63
2022-11-04T09:32:22.136Z,96999.81
2022-11-04T09:34:48.924Z,96994.47
2022-11-04T09:37:16.329Z,96982.72
2022-11-04T09:39:43.200Z,96982.88
2022-11-04T09:42:16.087Z,96980.88
2022-11-04T09:45:20.218Z,96978.84
2022-11-04T09:47:41.032Z,96970.16
2022-11-04T09:50:11.607Z,96963.16
2022-11-04T09:52:42.229Z,96947.69
2022-11-04T09:55:18.256Z,96951.00
2022-11-04T09:57:55.370Z,96948.25
2022-11-04T10:00:22.370Z,96941.66
2022-11-04T10:03:06.918Z,96933.81
2022-11-04T10:05:49.554Z,96938.69
2022-11-04T10:08:19.388Z,96923.41
2022-11-04T10:11:05.812Z,96916.34
2022-11-04T10:13:41.835Z,96912.63
2022-11-04T10:16:08.597Z,96920.41
2022-11-04T10:18:50.515Z,96912.97
2022-11-04T10:21:31.911Z,96917.91
2022-11-04T10:23:58.617Z,96910.78
2022-11-04T10:26:31.377Z,96903.81
2022-11-04T10:29:01.725Z,96903.22
2022-11-04T10:31:28.662Z,96906.06
2022-11-04T10:33:57.629Z,96893.69
2022-11-04T10:36:25.507Z,96895.34
2022-11-04T10:38:56.534Z,96888.72
2022-11-04T10:41:23.284Z,96882.97
2022-11-04T10:43:54.176Z,96874.22
2022-11-04T10:46:38.886Z,96871.56
2022-11-04T10:49:08.836Z,96868.06
2022-11-04T10:51:35.741Z,96863.22
2022-11-04T10:54:03.622Z,96860.69
2022-11-04T10:56:33.464Z,96850.81
2022-11-04T10:59:20.875Z,96850.59
2022-11-04T11:01:54.437Z,96846.16
2022-11-04T11:04:33.727Z,96847.16
2022-11-04T11:07:02.375Z,96854.31
2022-11-04T11:09:30.824Z,96848.34
2022-11-04T11:12:29.532Z,96848.06
2022-11-04T11:14:53.495Z,96846.53
2022-11-04T11:17:25.072Z,96847.28
2022-11-04T11:19:56.632Z,96839.09
2022-11-04T11:22:34.152Z,96843.31
2022-11-04T11:25:19.496Z,96832.50
2022-11-04T11:27:49.196Z,96845.09
2022-11-04T11:30:20.317Z,96844.63
2022-11-04T11:32:53.644Z,96839.25
2022-11-04T11:35:22.804Z,96833.03
2022-11-04T11:37:50.015Z,96836.91
2022-11-04T11:40:27.595Z,96836.31
2022-11-04T11:42:54.897Z,96838.06
2022-11-04T11:45:23.868Z,96833.00
2022-11-04T11:47:55.113Z,96830.31
2022-11-04T11:50:36.027Z,96823.31
2022-11-04T11:53:24.675Z,96829.44
2022-11-04T11:56:00.013Z,96816.63
2022-11-04T12:01:25.786Z,96808.63
2022-11-04T12:09:47.245Z,96800.81
2022-11-04T12:12:14.011Z,96795.66
2022-11-04T12:14:53.367Z,96797.16
2022-11-04T12:17:28.207Z,96797.31
2022-11-04T12:20:14.972Z,96789.41
2022-11-04T12:22:55.690Z,96779.50
2022-11-04T12:25:41.607Z,96780.78
2022-11-04T12:28:09.258Z,96774.84
2022-11-04T12:30:44.775Z,96781.44
2022-11-04T12:33:12.167Z,96784.22
2022-11-04T12:35:51.368Z,96779.31
2022-11-04T12:38:18.089Z,96774.69
2022-11-04T12:41:05.076Z,96760.38
2022-11-04T12:43:58.051Z,96755.38
2022-11-04T12:46:40.552Z,96751.81
2022-11-04T12:49:19.242Z,96752.53
2022-11-04T12:51:45.979Z,96747.56
2022-11-04T12:54:26.015Z,96743.38
2022-11-04T12:57:11.647Z,96742.72
2022-11-04T12:59:46.637Z,96741.00
2022-11-04T13:02:17.196Z,96746.59
2022-11-04T13:04:53.338Z,96756.66
2022-11-04T13:07:23.495Z,96756.06
2022-11-04T13:09:55.118Z,96749.81
2022-11-04T13:12:23.906Z,96751.34
2022-11-04T13:14:53.987Z,96741.88
2022-11-04T13:17:25.945Z,96742.78
2022-11-04T13:19:55.190Z,96744.56
2022-11-04T13:22:27.495Z,96737.28
2022-11-04T13:24:57.386Z,96744.25
2022-11-04T13:27:26.896Z,96738.53
2022-11-04T13:30:03.796Z,96742.00
2022-11-04T13:32:35.812Z,96737.97
2022-11-04T13:35:05.654Z,96747.50
2022-11-04T13:37:32.547Z,96745.50
2022-11-04T13:40:25.231Z,96742.31
2022-11-04T13:43:26.194Z,96747.13
2022-11-04T13:45:54.598Z,96752.34
2022-11-04T13:48:24.635Z,96749.53
2022-11-04T13:51:06.529Z,96745.44
2022-11-04T13:53:51.787Z,96742.16
2022-11-04T13:56:33.850Z,96743.97
2022-11-04T13:59:04.275Z,96748.09
2022-11-04T14:01:32.442Z,96744.81
2022-11-04T14:04:14.674Z,96739.09
2022-11-04T14:06:49.211Z,96747.75
2022-11-04T14:09:35.727Z,96745.31
2022-11-04T14:12:11.737Z,96732.38
2022-11-04T14:14:39.479Z,96735.09
2022-11-04T14:17:26.109Z,96731.00
2022-11-04T14:19:56.428Z,96739.88
2022-11-04T14:22:27.478Z,96729.06
2022-11-04T14:24:55.940Z,96728.66
2022-11-04T14:27:30.807Z,96730.25
2022-11-04T14:30:01.525Z,96729.06
2022-11-04T14:32:31.908Z,96726.19
2022-11-04T14:35:01.245Z,96726.00
2022-11-04T14:37:31.138Z,96727.44
2022-11-04T14:40:02.766Z,96721.09
2022-11-04T14:42:48.147Z,96730.94
2022-11-04T14:45:35.291Z,96733.53
2022-11-04T14:48:15.660Z,96733.91
2022-11-04T14:50:45.715Z,96728.97
2022-11-04T14:53:19.448Z,96734.22
2022-11-04T14:55:46.200Z,96738.47
2022-11-04T14:58:24.518Z,96738.34
2022-11-04T15:00:54.198Z,96733.97
2022-11-04T15:06:11.765Z,96731.38
2022-11-04T15:08:41.590Z,96733.72
2022-11-04T15:11:16.980Z,96738.53
2022-11-04T15:13:46.171Z,96731.47
2022-11-04T15:16:21.500Z,96728.13
2022-11-04T15:18:48.718Z,96733.75
2022-11-04T15:21:15.741Z,96725.91
2022-11-04T15:23:42.516Z,96734.38
2022-11-04T15:26:23.815Z,96733.97
2022-11-04T15:28:54.378Z,96741.44
2022-11-04T15:31:26.050Z,96746.28
2022-11-04T15:33:54.459Z,96740.56
2022-11-04T15:36:25.142Z,96745.78
2022-11-04T15:38:54.706Z,96741.69
2022-11-04T15:41:41.094Z,96737.50
2022-11-04T15:44:15.661Z,96740.78
2022-11-04T15:46:47.742Z,96744.78
2022-11-04T15:49:21.201Z,96744.56
2022-11-04T15:51:48.629Z,96743.38
2022-11-04T15:54:29.898Z,96744.38
2022-11-04T15:57:01.240Z,96744.53
2022-11-04T15:59:35.784Z,96745.50
2022-11-04T16:02:03.797Z,96747.28
2022-11-04T16:04:31.038Z,96757.75
2022-11-04T16:07:10.220Z,96756.22
2022-11-04T16:09:47.587Z,96762.88
2022-11-04T16:12:16.592Z,96763.34
2022-11-04T16:14:51.212Z,96761.38
2022-11-04T16:17:18.448Z,96764.94
2022-11-04T16:19:49.906Z,96763.09
2022-11-04T16:22:22.088Z,96762.84
2022-11-04T16:24:50.503Z,96766.84
2022-11-04T16:27:19.800Z,96766.22
2022-11-04T16:29:52.404Z,96761.91
2022-11-04T16:32:24.476Z,96773.81
2022-11-04T16:34:52.861Z,96781.47
2022-11-04T16:37:19.886Z,96774.50
2022-11-04T16:39:46.682Z,96779.66
2022-11-04T16:42:14.653Z,96783.59
2022-11-04T16:44:46.302Z,96782.13
2022-11-04T16:47:13.005Z,96788.03
2022-11-04T16:49:39.826Z,96790.53
2022-11-04T16:52:09.711Z,96788.38
2022-11-04T16:54:36.440Z,96794.28
2022-11-04T16:57:07.129Z,96792.34
2022-11-04T16:59:34.020Z,96796.94
2022-11-04T17:02:00.937Z,96795.94
2022-11-04T17:04:30.955Z,96796.91
2022-11-04T17:06:57.816Z,96802.50
2022-11-04T17:09:24.817Z,96803.47
2022-11-04T17:11:51.645Z,96797.16
2022-11-04T17:14:18.508Z,96797.66
2022-11-04T17:16:45.378Z,96799.47
2022-11-04T17:19:15.770Z,96801.44
2022-11-04T17:21:43.663Z,96799.44
2022-11-04T17:24:11.196Z,96803.41
2022-11-04T17:26:41.300Z,96802.72
2022-11-04T17:29:09.818Z,96795.59
2022-11-04T17:31:38.553Z,96791.75
2022-11-04T17:34:06.089Z,96795.09
2022-11-04T17:36:32.906Z,96799.94
2022-11-04T17:38:59.895Z,96797.94
2022-11-04T17:41:44.916Z,96795.31
2022-11-04T17:44:11.708Z,96796.13
2022-11-04T17:46:38.438Z,96799.59
2022-11-04T17:49:07.575Z,96796.41
2022-11-04T17:51:34.949Z,96789.63
2022-11-04T17:54:01.854Z,96795.41
2022-11-04T17:56:28.760Z,96793.56
2022-11-04T17:58:55.449Z,96794.25
2022-11-04T18:01:24.098Z,96790.22
2022-11-04T18:03:52.653Z,96781.63
2022-11-04T18:06:20.867Z,96784.78
2022-11-04T18:08:47.746Z,96779.03
2022-11-04T18:11:35.094Z,96780.34
2022-11-04T18:14:01.868Z,96783.94
2022-11-04T18:16:28.804Z,96780.13
2022-11-04T18:18:57.316Z,96781.56
2022-11-04T18:21:24.263Z,96774.81
2022-11-04T18:23:51.213Z,96777.75
2022-11-04T18:26:19.048Z,96779.81
2022-11-04T18:28:45.967Z,96788.69
2022-11-04T18:31:15.876Z,96789.84
2022-11-04T18:33:43.167Z,96783.72
2022-11-04T18:36:10.256Z,96779.59
2022-11-04T18:38:37.378Z,96783.97
2022-11-04T18:41:04.166Z,96782.69
2022-11-04T18:43:31.045Z,96781.97
2022-11-04T18:45:58.515Z,96792.56
2022-11-04T18:48:25.674Z,96782.63
2022-11-04T18:50:52.425Z,96784.13
2022-11-04T18:53:24.287Z,96779.44
2022-11-04T18:55:54.010Z,96778.63
2022-11-04T18:58:21.054Z,96781.16
2022-11-04T19:00:47.832Z,96779.81
2022-11-04T19:03:14.861Z,96782.59
2022-11-04T19:05:42.502Z,96772.56
2022-11-04T19:08:09.709Z,96776.50
2022-11-04T19:11:14.724Z,96766.31
2022-11-04T19:13:41.816Z,96768.66
2022-11-04T19:16:09.937Z,96772.28
2022-11-04T19:18:36.914Z,96767.47
2022-11-04T19:21:07.688Z,96770.94
2022-11-04T19:23:34.738Z,96767.00
2022-11-04T19:26:12.292Z,96768.34
2022-11-04T19:28:48.306Z,96769.63
2022-11-04T19:31:21.291Z,96770.94
2022-11-04T19:33:48.643Z,96768.25
2022-11-04T19:36:16.098Z,96772.56
2022-11-04T19:38:44.093Z,96772.53
2022-11-04T19:41:34.037Z,96773.03
2022-11-04T19:44:05.049Z,96778.63
2022-11-04T19:46:32.444Z,96784.69
2022-11-04T19:48:59.477Z,96782.06
2022-11-04T19:51:31.784Z,96787.63
2022-11-04T19:53:58.912Z,96780.72
2022-11-04T19:56:26.374Z,96780.44
2022-11-04T19:58:53.311Z,96786.28
2022-11-04T20:01:20.833Z,96783.81
2022-11-04T20:03:48.140Z,96783.31
2022-11-04T20:06:16.315Z,96778.34
2022-11-04T20:08:44.325Z,96781.97
2022-11-04T20:11:11.753Z,96783.53
2022-11-04T20:13:44.497Z,96781.81
2022-11-04T20:16:20.432Z,96781.38
2022-11-04T20:18:57.261Z,96780.63
2022-11-04T20:21:35.623Z,96777.31
2022-11-04T20:24:04.457Z,96785.66
2022-11-04T20:26:32.529Z,96785.97
2022-11-04T20:29:02.642Z,96791.00
2022-11-04T20:31:31.364Z,96792.66
2022-11-04T20:33:58.873Z,96791.16
2022-11-04T20:36:27.455Z,96792.66
2022-11-04T20:39:01.284Z,96795.59
2022-11-04T20:41:28.739Z,96790.38
2022-11-04T20:43:56.192Z,96788.44
2022-11-04T20:46:24.797Z,96788.66
2022-11-04T20:48:52.304Z,96786.03
2022-11-04T20:51:20.700Z,96781.06
2022-11-04T20:53:48.233Z,96780.38
2022-11-04T20:56:16.468Z,96789.91
2022-11-04T20:58:48.415Z,96783.00
2022-11-04T21:01:17.388Z,96783.59
2022-11-04T21:03:44.565Z,96782.19
2022-11-04T21:06:12.058Z,96785.97
2022-11-04T21:08:39.237Z,96786.41
2022-11-04T21:11:06.796Z,96778.81
2022-11-04T21:13:34.039Z,96783.09
2022-11-04T21:16:04.198Z,96776.84
2022-11-04T21:18:31.343Z,96778.66
2022-11-04T21:20:58.477Z,96775.06
2022-11-04T21:23:25.355Z,96770.72
2022-11-04T21:25:54.295Z,96767.16
2022-11-04T21:28:21.146Z,96764.50
2022-11-04T21:30:49.281Z,96766.28
2022-11-04T21:33:16.122Z,96760.91
2022-11-04T21:35:43.728Z,96760.78
2022-11-04T21:38:13.496Z,96764.22
2022-11-04T21:40:40.721Z,96761.88
2022-11-04T21:43:07.672Z,96760.91
2022-11-04T21:45:35.058Z,96770.72
2022-11-04T21:48:02.171Z,96778.63
2022-11-04T21:50:29.147Z,96773.91
2022-11-04T21:52:57.552Z,96772.41
2022-11-04T21:55:24.658Z,96766.28
2022-11-04T21:57:51.712Z,96768.91
2022-11-04T22:00:18.732Z,96766.22
2022-11-04T22:02:54.691Z,96761.78
2022-11-04T22:05:21.919Z,96758.75
2022-11-04T22:08:06.941Z,96754.47
2022-11-04T22:10:36.214Z,96752.28
2022-11-04T22:13:03.190Z,96746.03
2022-11-04T22:15:49.208Z,96749.13
2022-11-04T22:18:16.451Z,96747.44
2022-11-04T22:20:43.433Z,96746.09
2022-11-04T22:23:10.322Z,96741.44
2022-11-04T22:25:37.424Z,96733.44
2022-11-04T22:28:04.315Z,96730.72
2022-11-04T22:30:31.311Z,96735.16
2022-11-04T22:32:58.257Z,96734.72
2022-11-04T22:35:25.181Z,96730.28
2022-11-04T22:37:52.281Z,96725.19
2022-11-04T22:40:19.376Z,96730.44
2022-11-04T22:42:46.252Z,96723.53
2022-11-04T22:45:16.673Z,96727.44
2022-11-04T22:47:44.166Z,96722.59
2022-11-04T22:50:11.132Z,96729.00
2022-11-04T22:52:38.104Z,96728.84
2022-11-04T22:55:05.264Z,96731.47
2022-11-04T22:57:32.488Z,96728.28
2022-11-04T23:00:01.880Z,96730.09
2022-11-04T23:02:33.917Z,96726.66
2022-11-04T23:05:03.699Z,96725.28
2022-11-04T23:07:30.538Z,96727.50
2022-11-04T23:10:16.018Z,96725.84
2022-11-04T23:13:01.145Z,96726.13
2022-11-04T23:15:46.176Z,96721.16
2022-11-04T23:18:31.859Z,96720.09
2022-11-04T23:21:17.620Z,96724.84
2022-11-04T23:24:02.891Z,96728.31
2022-11-04T23:26:29.800Z,96715.78
2022-11-04T23:29:15.188Z,96728.47
2022-11-04T23:31:42.295Z,96728.47
2022-11-04T23:34:27.830Z,96725.84
2022-11-04T23:37:12.620Z,96722.94
2022-11-04T23:39:40.306Z,96718.81
2022-11-04T23:42:16.465Z,96723.78
2022-11-04T23:45:02.950Z,96721.88
2022-11-04T23:47:49.401Z,96728.50
2022-11-04T23:50:35.123Z,96726.84
2022-11-04T23:53:21.377Z,96733.34
2022-11-04T23:56:07.046Z,96737.63
2022-11-04T23:58:57.880Z,96737.63
